Hlavní strana
METAR-TAF:

METAR-TAF

Letiště :

St. Gallen, Švýcarsko

zeměpisná šířka: 47-29-06N, zeměpisná délka: 009-33-43E, výška: 398 m

Aktuální stav počasí

Zpráva byla vytvořena před 22 minutami, v 10:50 UTC
Západní vítr 6 kt
Teplota 22°C
Vlhkost vzduchu 65%
Tlak 1018 hPa
Viditelnost 10 km a více
Žádná oblačnost pod 1500 m, nevyskytují se cumulonimby.

METAR: LSZR 251050Z 28006KT CAVOK 22/15 Q1018 NOSIG RMK H

Čas: 13:12 (11:12 UTC)

Předpověď počasí

Zpráva byla vytvořena před 23 hodinami a 47 minutami, v 11:25 UTC
Předpověď platná od 24 v 12 UTC do 24 v 21 UTC
Severoseverozápadní vítr 5 kt
Viditelnost 10 km a více
Skoro jasno ve výšce 4000 ft
Pravděpodobnost 40% :
Dočasný
od 24 v 12 UTC do 24 v 17 UTC
Polojasno ve výšce 5000 ft, Vertikální cumulus.
dešťové přeháňky
Změna
od 24 v 18 UTC do 24 v 21 UTC
Viditelnost 10 km a více
Žádná oblačnost pod 1500 m, nevyskytují se cumulonimby.

TAF: LSZR 241125Z 2412/2421 34005KT 9999 FEW040 PROB40 TEMPO 2412/2417 SHRA SCT050TCU BECMG 2418/2421 CAVOK

Stav a předpovědi počasí z více než 4 000 letišť (zprávy METAR a TAF).

Červené a žluté tečky na mapě představují dostupné meteorologické stanice.

Když kurzor umístíte na tečku, zobrazí se název stanice.

Pak kliknutím zobrazíte stav a předpověď počasí.

Chcete-li změnit mapu, kliknutím na zelené tlačítko se znaménkem +mapu přiblížíte, kliknutím na zelené tlačítko se znaménkem – mapu oddálíte a kliknutím na zelené šipky přejdete na sousední mapy.


METAR-TAF: